sensor_id;sensor_type;location;lat;lon;timestamp;P1;durP1;ratioP1;P2;durP2;ratioP2
17844;SDS011;9047;53.486;10.218;2022-12-07T00:00:20;33.83;;;17.63;;
17844;SDS011;9047;53.486;10.218;2022-12-07T00:02:47;34.35;;;18.05;;
17844;SDS011;9047;53.486;10.218;2022-12-07T00:05:14;32.72;;;18.08;;
17844;SDS011;9047;53.486;10.218;2022-12-07T00:07:41;33.17;;;17.80;;
17844;SDS011;9047;53.486;10.218;2022-12-07T00:10:08;32.03;;;17.77;;
17844;SDS011;9047;53.486;10.218;2022-12-07T00:12:36;32.22;;;16.90;;
17844;SDS011;9047;53.486;10.218;2022-12-07T00:15:06;30.65;;;16.30;;
17844;SDS011;9047;53.486;10.218;2022-12-07T00:17:33;30.88;;;17.35;;
17844;SDS011;9047;53.486;10.218;2022-12-07T00:20:00;33.90;;;18.27;;
17844;SDS011;9047;53.486;10.218;2022-12-07T00:22:27;31.10;;;17.20;;
17844;SDS011;9047;53.486;10.218;2022-12-07T00:24:54;32.97;;;18.40;;
17844;SDS011;9047;53.486;10.218;2022-12-07T00:27:21;32.10;;;17.25;;
17844;SDS011;9047;53.486;10.218;2022-12-07T00:29:49;32.20;;;17.73;;
17844;SDS011;9047;53.486;10.218;2022-12-07T00:32:16;31.73;;;17.25;;
17844;SDS011;9047;53.486;10.218;2022-12-07T00:34:42;30.73;;;16.92;;
17844;SDS011;9047;53.486;10.218;2022-12-07T00:37:11;33.00;;;17.25;;
17844;SDS011;9047;53.486;10.218;2022-12-07T00:39:39;33.75;;;18.77;;
17844;SDS011;9047;53.486;10.218;2022-12-07T00:42:06;30.73;;;17.65;;
17844;SDS011;9047;53.486;10.218;2022-12-07T00:44:33;32.58;;;17.60;;
17844;SDS011;9047;53.486;10.218;2022-12-07T00:47:01;31.48;;;16.90;;
17844;SDS011;9047;53.486;10.218;2022-12-07T00:49:28;32.20;;;16.60;;
17844;SDS011;9047;53.486;10.218;2022-12-07T00:51:55;31.67;;;18.08;;
17844;SDS011;9047;53.486;10.218;2022-12-07T00:54:21;29.08;;;16.85;;
17844;SDS011;9047;53.486;10.218;2022-12-07T00:56:48;34.20;;;18.27;;
17844;SDS011;9047;53.486;10.218;2022-12-07T00:59:15;30.40;;;16.95;;
17844;SDS011;9047;53.486;10.218;2022-12-07T01:01:42;31.92;;;17.10;;
17844;SDS011;9047;53.486;10.218;2022-12-07T01:04:10;30.75;;;16.55;;
17844;SDS011;9047;53.486;10.218;2022-12-07T01:06:37;30.75;;;15.90;;
17844;SDS011;9047;53.486;10.218;2022-12-07T01:09:05;29.20;;;15.77;;
17844;SDS011;9047;53.486;10.218;2022-12-07T01:11:31;27.58;;;15.23;;
17844;SDS011;9047;53.486;10.218;2022-12-07T01:13:59;26.15;;;15.35;;
17844;SDS011;9047;53.486;10.218;2022-12-07T01:16:28;28.23;;;14.85;;
17844;SDS011;9047;53.486;10.218;2022-12-07T01:18:57;27.90;;;14.85;;
17844;SDS011;9047;53.486;10.218;2022-12-07T01:21:26;28.40;;;15.07;;
17844;SDS011;9047;53.486;10.218;2022-12-07T01:23:54;25.02;;;13.93;;
17844;SDS011;9047;53.486;10.218;2022-12-07T01:26:23;25.23;;;13.85;;
17844;SDS011;9047;53.486;10.218;2022-12-07T01:28:51;24.23;;;12.98;;
17844;SDS011;9047;53.486;10.218;2022-12-07T01:31:21;23.15;;;12.93;;
17844;SDS011;9047;53.486;10.218;2022-12-07T01:33:50;21.67;;;12.77;;
17844;SDS011;9047;53.486;10.218;2022-12-07T01:36:19;21.40;;;12.25;;
17844;SDS011;9047;53.486;10.218;2022-12-07T01:38:49;23.20;;;12.05;;
17844;SDS011;9047;53.486;10.218;2022-12-07T01:41:21;21.80;;;11.30;;
17844;SDS011;9047;53.486;10.218;2022-12-07T01:46:51;20.95;;;11.77;;
17844;SDS011;9047;53.486;10.218;2022-12-07T01:49:23;19.95;;;10.55;;
17844;SDS011;9047;53.486;10.218;2022-12-07T01:51:54;20.58;;;11.07;;
17844;SDS011;9047;53.486;10.218;2022-12-07T01:54:27;24.42;;;10.80;;
17844;SDS011;9047;53.486;10.218;2022-12-07T01:56:54;21.75;;;10.77;;
17844;SDS011;9047;53.486;10.218;2022-12-07T01:59:24;20.70;;;10.73;;
17844;SDS011;9047;53.486;10.218;2022-12-07T02:01:52;18.80;;;10.35;;
17844;SDS011;9047;53.486;10.218;2022-12-07T02:04:21;18.60;;;10.10;;
17844;SDS011;9047;53.486;10.218;2022-12-07T02:06:48;17.70;;;10.05;;
17844;SDS011;9047;53.486;10.218;2022-12-07T02:09:16;18.85;;;9.65;;
17844;SDS011;9047;53.486;10.218;2022-12-07T02:11:45;18.38;;;9.77;;
17844;SDS011;9047;53.486;10.218;2022-12-07T02:14:12;16.90;;;9.30;;
17844;SDS011;9047;53.486;10.218;2022-12-07T02:16:43;17.33;;;8.90;;
17844;SDS011;9047;53.486;10.218;2022-12-07T02:19:32;18.45;;;9.40;;
17844;SDS011;9047;53.486;10.218;2022-12-07T02:25:44;17.98;;;8.98;;
17844;SDS011;9047;53.486;10.218;2022-12-07T02:28:30;19.35;;;8.73;;
17844;SDS011;9047;53.486;10.218;2022-12-07T02:31:03;13.40;;;7.78;;
17844;SDS011;9047;53.486;10.218;2022-12-07T02:33:40;16.15;;;8.38;;
17844;SDS011;9047;53.486;10.218;2022-12-07T02:36:10;16.25;;;8.10;;
17844;SDS011;9047;53.486;10.218;2022-12-07T02:38:44;16.10;;;7.75;;
17844;SDS011;9047;53.486;10.218;2022-12-07T02:41:17;18.00;;;8.88;;
17844;SDS011;9047;53.486;10.218;2022-12-07T02:43:46;16.33;;;8.52;;
17844;SDS011;9047;53.486;10.218;2022-12-07T02:46:19;16.88;;;8.45;;
17844;SDS011;9047;53.486;10.218;2022-12-07T02:48:49;17.98;;;8.50;;
17844;SDS011;9047;53.486;10.218;2022-12-07T02:51:18;17.83;;;8.02;;
17844;SDS011;9047;53.486;10.218;2022-12-07T02:53:45;16.65;;;8.15;;
17844;SDS011;9047;53.486;10.218;2022-12-07T02:56:13;16.20;;;8.43;;
17844;SDS011;9047;53.486;10.218;2022-12-07T02:58:50;17.58;;;8.35;;
17844;SDS011;9047;53.486;10.218;2022-12-07T03:01:30;16.55;;;8.00;;
17844;SDS011;9047;53.486;10.218;2022-12-07T03:04:11;15.38;;;7.78;;
17844;SDS011;9047;53.486;10.218;2022-12-07T03:06:51;15.60;;;7.45;;
17844;SDS011;9047;53.486;10.218;2022-12-07T03:09:24;15.48;;;6.82;;
17844;SDS011;9047;53.486;10.218;2022-12-07T03:11:58;15.27;;;6.65;;
17844;SDS011;9047;53.486;10.218;2022-12-07T03:14:31;13.45;;;6.10;;
17844;SDS011;9047;53.486;10.218;2022-12-07T03:17:07;16.08;;;6.03;;
17844;SDS011;9047;53.486;10.218;2022-12-07T03:19:38;12.20;;;5.60;;
17844;SDS011;9047;53.486;10.218;2022-12-07T03:22:07;12.13;;;5.63;;
17844;SDS011;9047;53.486;10.218;2022-12-07T03:24:38;13.98;;;6.03;;
17844;SDS011;9047;53.486;10.218;2022-12-07T03:27:09;12.90;;;5.65;;
17844;SDS011;9047;53.486;10.218;2022-12-07T03:29:44;11.98;;;5.10;;
17844;SDS011;9047;53.486;10.218;2022-12-07T03:32:16;13.93;;;5.95;;
17844;SDS011;9047;53.486;10.218;2022-12-07T03:34:50;11.95;;;5.30;;
17844;SDS011;9047;53.486;10.218;2022-12-07T03:37:23;11.00;;;5.50;;
17844;SDS011;9047;53.486;10.218;2022-12-07T03:39:56;12.65;;;5.72;;
17844;SDS011;9047;53.486;10.218;2022-12-07T03:42:28;12.25;;;5.15;;
17844;SDS011;9047;53.486;10.218;2022-12-07T03:44:55;13.68;;;5.88;;
17844;SDS011;9047;53.486;10.218;2022-12-07T03:47:26;9.38;;;5.18;;
17844;SDS011;9047;53.486;10.218;2022-12-07T03:49:56;11.18;;;5.43;;
17844;SDS011;9047;53.486;10.218;2022-12-07T03:52:28;13.75;;;5.38;;
17844;SDS011;9047;53.486;10.218;2022-12-07T03:55:00;13.77;;;5.32;;
17844;SDS011;9047;53.486;10.218;2022-12-07T03:57:31;11.80;;;4.80;;
17844;SDS011;9047;53.486;10.218;2022-12-07T04:00:00;10.32;;;4.97;;
17844;SDS011;9047;53.486;10.218;2022-12-07T04:02:33;11.98;;;4.32;;
17844;SDS011;9047;53.486;10.218;2022-12-07T04:05:02;9.40;;;4.00;;
17844;SDS011;9047;53.486;10.218;2022-12-07T04:07:29;9.63;;;3.70;;
17844;SDS011;9047;53.486;10.218;2022-12-07T04:09:56;7.75;;;3.35;;
17844;SDS011;9047;53.486;10.218;2022-12-07T04:12:25;7.68;;;3.10;;
17844;SDS011;9047;53.486;10.218;2022-12-07T04:14:52;7.60;;;3.10;;
17844;SDS011;9047;53.486;10.218;2022-12-07T04:17:23;5.82;;;2.75;;
17844;SDS011;9047;53.486;10.218;2022-12-07T04:19:51;5.60;;;2.75;;
17844;SDS011;9047;53.486;10.218;2022-12-07T04:22:18;6.85;;;2.90;;
17844;SDS011;9047;53.486;10.218;2022-12-07T04:24:45;5.70;;;2.80;;
17844;SDS011;9047;53.486;10.218;2022-12-07T04:27:11;7.00;;;2.50;;
17844;SDS011;9047;53.486;10.218;2022-12-07T04:29:38;6.90;;;2.95;;
17844;SDS011;9047;53.486;10.218;2022-12-07T04:32:05;5.53;;;2.65;;
17844;SDS011;9047;53.486;10.218;2022-12-07T04:34:32;8.38;;;3.22;;
17844;SDS011;9047;53.486;10.218;2022-12-07T04:37:01;5.55;;;2.95;;
17844;SDS011;9047;53.486;10.218;2022-12-07T04:39:29;7.78;;;3.10;;
17844;SDS011;9047;53.486;10.218;2022-12-07T04:41:57;5.53;;;3.17;;
17844;SDS011;9047;53.486;10.218;2022-12-07T04:44:25;5.55;;;3.08;;
17844;SDS011;9047;53.486;10.218;2022-12-07T04:46:53;6.93;;;2.97;;
17844;SDS011;9047;53.486;10.218;2022-12-07T04:49:20;7.88;;;2.90;;
17844;SDS011;9047;53.486;10.218;2022-12-07T04:51:47;7.28;;;3.22;;
17844;SDS011;9047;53.486;10.218;2022-12-07T04:54:28;4.50;;;2.72;;
17844;SDS011;9047;53.486;10.218;2022-12-07T04:56:54;5.80;;;2.63;;
17844;SDS011;9047;53.486;10.218;2022-12-07T04:59:21;5.20;;;2.63;;
17844;SDS011;9047;53.486;10.218;2022-12-07T05:01:48;7.03;;;3.08;;
17844;SDS011;9047;53.486;10.218;2022-12-07T05:04:15;5.78;;;2.58;;
17844;SDS011;9047;53.486;10.218;2022-12-07T05:06:43;5.20;;;2.72;;
17844;SDS011;9047;53.486;10.218;2022-12-07T05:09:10;6.60;;;3.05;;
17844;SDS011;9047;53.486;10.218;2022-12-07T05:11:38;6.22;;;3.20;;
17844;SDS011;9047;53.486;10.218;2022-12-07T05:14:06;7.22;;;3.00;;
17844;SDS011;9047;53.486;10.218;2022-12-07T05:16:35;6.88;;;3.10;;
17844;SDS011;9047;53.486;10.218;2022-12-07T05:19:02;8.88;;;3.40;;
17844;SDS011;9047;53.486;10.218;2022-12-07T05:21:30;7.05;;;3.17;;
17844;SDS011;9047;53.486;10.218;2022-12-07T05:23:57;7.47;;;3.20;;
17844;SDS011;9047;53.486;10.218;2022-12-07T05:26:23;6.82;;;3.13;;
17844;SDS011;9047;53.486;10.218;2022-12-07T05:28:52;8.52;;;3.28;;
17844;SDS011;9047;53.486;10.218;2022-12-07T05:31:20;6.70;;;3.33;;
17844;SDS011;9047;53.486;10.218;2022-12-07T05:33:47;11.13;;;3.58;;
17844;SDS011;9047;53.486;10.218;2022-12-07T05:36:14;8.63;;;3.80;;
17844;SDS011;9047;53.486;10.218;2022-12-07T05:38:42;10.05;;;3.83;;
17844;SDS011;9047;53.486;10.218;2022-12-07T05:41:16;9.65;;;3.88;;
17844;SDS011;9047;53.486;10.218;2022-12-07T05:44:05;9.13;;;4.35;;
17844;SDS011;9047;53.486;10.218;2022-12-07T05:46:33;8.02;;;4.40;;
17844;SDS011;9047;53.486;10.218;2022-12-07T05:49:00;9.80;;;4.45;;
17844;SDS011;9047;53.486;10.218;2022-12-07T05:51:28;9.60;;;4.13;;
17844;SDS011;9047;53.486;10.218;2022-12-07T05:53:55;9.68;;;4.03;;
17844;SDS011;9047;53.486;10.218;2022-12-07T05:56:22;8.38;;;4.20;;
17844;SDS011;9047;53.486;10.218;2022-12-07T05:58:49;10.07;;;4.50;;
17844;SDS011;9047;53.486;10.218;2022-12-07T06:01:34;10.13;;;4.03;;
17844;SDS011;9047;53.486;10.218;2022-12-07T06:04:01;8.85;;;4.15;;
17844;SDS011;9047;53.486;10.218;2022-12-07T06:06:34;9.95;;;4.40;;
17844;SDS011;9047;53.486;10.218;2022-12-07T06:09:00;8.80;;;4.28;;
17844;SDS011;9047;53.486;10.218;2022-12-07T06:11:27;8.30;;;4.43;;
17844;SDS011;9047;53.486;10.218;2022-12-07T06:14:12;10.63;;;4.57;;
17844;SDS011;9047;53.486;10.218;2022-12-07T06:16:40;9.98;;;4.22;;
17844;SDS011;9047;53.486;10.218;2022-12-07T06:19:07;10.77;;;4.35;;
17844;SDS011;9047;53.486;10.218;2022-12-07T06:21:35;10.30;;;4.30;;
17844;SDS011;9047;53.486;10.218;2022-12-07T06:24:03;9.18;;;4.22;;
17844;SDS011;9047;53.486;10.218;2022-12-07T06:26:33;11.65;;;4.07;;
17844;SDS011;9047;53.486;10.218;2022-12-07T06:28:59;9.25;;;4.43;;
17844;SDS011;9047;53.486;10.218;2022-12-07T06:31:27;9.50;;;4.38;;
17844;SDS011;9047;53.486;10.218;2022-12-07T06:33:58;9.52;;;4.30;;
17844;SDS011;9047;53.486;10.218;2022-12-07T06:36:25;10.10;;;4.10;;
17844;SDS011;9047;53.486;10.218;2022-12-07T06:38:52;8.88;;;4.10;;
17844;SDS011;9047;53.486;10.218;2022-12-07T06:41:19;7.38;;;4.05;;
17844;SDS011;9047;53.486;10.218;2022-12-07T06:43:46;9.27;;;4.40;;
17844;SDS011;9047;53.486;10.218;2022-12-07T06:46:16;10.38;;;4.28;;
17844;SDS011;9047;53.486;10.218;2022-12-07T06:48:46;9.10;;;4.10;;
17844;SDS011;9047;53.486;10.218;2022-12-07T06:51:17;11.32;;;4.32;;
17844;SDS011;9047;53.486;10.218;2022-12-07T06:53:44;15.80;;;4.68;;
17844;SDS011;9047;53.486;10.218;2022-12-07T06:56:13;9.55;;;3.78;;
17844;SDS011;9047;53.486;10.218;2022-12-07T06:58:43;8.93;;;4.63;;
17844;SDS011;9047;53.486;10.218;2022-12-07T07:01:11;14.15;;;5.80;;
17844;SDS011;9047;53.486;10.218;2022-12-07T07:03:40;9.38;;;4.35;;
17844;SDS011;9047;53.486;10.218;2022-12-07T07:06:09;9.00;;;4.03;;
17844;SDS011;9047;53.486;10.218;2022-12-07T07:08:38;7.68;;;4.05;;
17844;SDS011;9047;53.486;10.218;2022-12-07T07:11:08;8.98;;;4.40;;
17844;SDS011;9047;53.486;10.218;2022-12-07T07:13:36;9.30;;;4.25;;
17844;SDS011;9047;53.486;10.218;2022-12-07T07:16:03;10.85;;;4.80;;
17844;SDS011;9047;53.486;10.218;2022-12-07T07:18:30;9.20;;;4.10;;
17844;SDS011;9047;53.486;10.218;2022-12-07T07:20:57;8.65;;;3.95;;
17844;SDS011;9047;53.486;10.218;2022-12-07T07:23:24;9.23;;;4.07;;
17844;SDS011;9047;53.486;10.218;2022-12-07T07:25:52;8.70;;;3.50;;
17844;SDS011;9047;53.486;10.218;2022-12-07T07:28:19;7.68;;;3.45;;
17844;SDS011;9047;53.486;10.218;2022-12-07T07:30:46;10.45;;;3.50;;
17844;SDS011;9047;53.486;10.218;2022-12-07T07:33:13;10.43;;;3.60;;
17844;SDS011;9047;53.486;10.218;2022-12-07T07:35:40;8.98;;;4.05;;
17844;SDS011;9047;53.486;10.218;2022-12-07T07:38:07;7.95;;;3.75;;
17844;SDS011;9047;53.486;10.218;2022-12-07T07:40:34;10.65;;;3.83;;
17844;SDS011;9047;53.486;10.218;2022-12-07T07:43:03;6.63;;;3.22;;
17844;SDS011;9047;53.486;10.218;2022-12-07T07:45:30;10.30;;;3.47;;
17844;SDS011;9047;53.486;10.218;2022-12-07T07:47:56;9.68;;;2.95;;
17844;SDS011;9047;53.486;10.218;2022-12-07T07:50:23;12.57;;;3.22;;
17844;SDS011;9047;53.486;10.218;2022-12-07T07:52:50;9.88;;;3.58;;
17844;SDS011;9047;53.486;10.218;2022-12-07T07:55:18;5.68;;;3.38;;
17844;SDS011;9047;53.486;10.218;2022-12-07T07:57:44;7.20;;;3.78;;
17844;SDS011;9047;53.486;10.218;2022-12-07T08:00:14;9.35;;;4.38;;
17844;SDS011;9047;53.486;10.218;2022-12-07T08:02:42;11.35;;;4.30;;
17844;SDS011;9047;53.486;10.218;2022-12-07T08:05:09;11.65;;;4.90;;
17844;SDS011;9047;53.486;10.218;2022-12-07T08:07:37;10.35;;;4.20;;
17844;SDS011;9047;53.486;10.218;2022-12-07T08:10:04;11.60;;;3.63;;
17844;SDS011;9047;53.486;10.218;2022-12-07T08:12:35;8.48;;;3.35;;
17844;SDS011;9047;53.486;10.218;2022-12-07T08:15:25;10.05;;;3.00;;
17844;SDS011;9047;53.486;10.218;2022-12-07T08:17:52;7.88;;;3.00;;
17844;SDS011;9047;53.486;10.218;2022-12-07T08:20:18;9.13;;;2.17;;
17844;SDS011;9047;53.486;10.218;2022-12-07T08:22:46;14.15;;;2.80;;
17844;SDS011;9047;53.486;10.218;2022-12-07T08:25:12;10.18;;;2.58;;
17844;SDS011;9047;53.486;10.218;2022-12-07T08:27:39;5.13;;;2.05;;
17844;SDS011;9047;53.486;10.218;2022-12-07T08:30:06;5.90;;;2.17;;
17844;SDS011;9047;53.486;10.218;2022-12-07T08:32:37;9.23;;;2.40;;
17844;SDS011;9047;53.486;10.218;2022-12-07T08:35:05;8.85;;;2.33;;
17844;SDS011;9047;53.486;10.218;2022-12-07T08:37:32;8.85;;;2.30;;
17844;SDS011;9047;53.486;10.218;2022-12-07T08:39:59;7.70;;;2.38;;
17844;SDS011;9047;53.486;10.218;2022-12-07T08:42:26;5.32;;;2.20;;
17844;SDS011;9047;53.486;10.218;2022-12-07T08:44:54;6.00;;;2.20;;
17844;SDS011;9047;53.486;10.218;2022-12-07T08:47:22;5.07;;;1.63;;
17844;SDS011;9047;53.486;10.218;2022-12-07T08:49:54;2.95;;;1.63;;
17844;SDS011;9047;53.486;10.218;2022-12-07T08:52:21;5.97;;;2.20;;
17844;SDS011;9047;53.486;10.218;2022-12-07T08:54:49;9.50;;;2.00;;
17844;SDS011;9047;53.486;10.218;2022-12-07T08:57:15;9.45;;;1.88;;
17844;SDS011;9047;53.486;10.218;2022-12-07T08:59:42;6.18;;;1.80;;
17844;SDS011;9047;53.486;10.218;2022-12-07T09:02:09;8.30;;;1.80;;
17844;SDS011;9047;53.486;10.218;2022-12-07T09:04:36;5.68;;;2.05;;
17844;SDS011;9047;53.486;10.218;2022-12-07T09:07:04;4.88;;;1.60;;
17844;SDS011;9047;53.486;10.218;2022-12-07T09:09:31;7.10;;;1.85;;
17844;SDS011;9047;53.486;10.218;2022-12-07T09:11:58;6.53;;;1.73;;
17844;SDS011;9047;53.486;10.218;2022-12-07T09:14:25;8.02;;;2.10;;
17844;SDS011;9047;53.486;10.218;2022-12-07T09:16:52;6.55;;;1.75;;
17844;SDS011;9047;53.486;10.218;2022-12-07T09:19:18;5.95;;;1.80;;
17844;SDS011;9047;53.486;10.218;2022-12-07T09:21:46;5.82;;;1.85;;
17844;SDS011;9047;53.486;10.218;2022-12-07T09:24:14;8.40;;;2.08;;
17844;SDS011;9047;53.486;10.218;2022-12-07T09:26:40;5.22;;;2.03;;
17844;SDS011;9047;53.486;10.218;2022-12-07T09:29:07;3.67;;;1.60;;
17844;SDS011;9047;53.486;10.218;2022-12-07T09:31:35;7.47;;;2.20;;
17844;SDS011;9047;53.486;10.218;2022-12-07T09:34:03;8.05;;;2.25;;
17844;SDS011;9047;53.486;10.218;2022-12-07T09:36:30;7.03;;;2.20;;
17844;SDS011;9047;53.486;10.218;2022-12-07T09:38:57;6.45;;;1.83;;
17844;SDS011;9047;53.486;10.218;2022-12-07T09:41:26;5.60;;;1.90;;
17844;SDS011;9047;53.486;10.218;2022-12-07T09:43:57;4.65;;;1.80;;
17844;SDS011;9047;53.486;10.218;2022-12-07T09:46:38;6.30;;;2.17;;
17844;SDS011;9047;53.486;10.218;2022-12-07T09:49:08;8.55;;;2.13;;
17844;SDS011;9047;53.486;10.218;2022-12-07T09:51:38;5.80;;;1.88;;
17844;SDS011;9047;53.486;10.218;2022-12-07T09:54:05;8.25;;;1.70;;
17844;SDS011;9047;53.486;10.218;2022-12-07T09:56:33;3.72;;;1.40;;
17844;SDS011;9047;53.486;10.218;2022-12-07T09:59:00;5.72;;;1.55;;
17844;SDS011;9047;53.486;10.218;2022-12-07T10:01:29;6.35;;;1.70;;
17844;SDS011;9047;53.486;10.218;2022-12-07T10:03:59;10.52;;;2.58;;
17844;SDS011;9047;53.486;10.218;2022-12-07T10:06:32;8.13;;;1.65;;
17844;SDS011;9047;53.486;10.218;2022-12-07T10:08:58;6.32;;;1.58;;
17844;SDS011;9047;53.486;10.218;2022-12-07T10:11:25;7.43;;;1.75;;
17844;SDS011;9047;53.486;10.218;2022-12-07T10:13:53;6.63;;;1.70;;
17844;SDS011;9047;53.486;10.218;2022-12-07T10:16:35;9.43;;;1.88;;
17844;SDS011;9047;53.486;10.218;2022-12-07T10:22:04;9.32;;;2.13;;
17844;SDS011;9047;53.486;10.218;2022-12-07T10:24:35;3.13;;;1.63;;
17844;SDS011;9047;53.486;10.218;2022-12-07T10:27:16;5.10;;;1.67;;
17844;SDS011;9047;53.486;10.218;2022-12-07T10:29:48;5.30;;;1.40;;
17844;SDS011;9047;53.486;10.218;2022-12-07T10:32:31;7.70;;;1.70;;
17844;SDS011;9047;53.486;10.218;2022-12-07T10:35:18;6.80;;;1.63;;
17844;SDS011;9047;53.486;10.218;2022-12-07T10:37:48;6.93;;;1.40;;
17844;SDS011;9047;53.486;10.218;2022-12-07T10:40:32;6.05;;;1.30;;
17844;SDS011;9047;53.486;10.218;2022-12-07T10:43:02;4.57;;;1.30;;
17844;SDS011;9047;53.486;10.218;2022-12-07T10:45:54;5.75;;;1.38;;
17844;SDS011;9047;53.486;10.218;2022-12-07T10:48:47;8.93;;;1.52;;
17844;SDS011;9047;53.486;10.218;2022-12-07T10:51:23;5.97;;;1.17;;
17844;SDS011;9047;53.486;10.218;2022-12-07T10:54:01;3.15;;;1.13;;
17844;SDS011;9047;53.486;10.218;2022-12-07T10:56:54;6.70;;;1.30;;
17844;SDS011;9047;53.486;10.218;2022-12-07T10:59:38;4.53;;;1.13;;
17844;SDS011;9047;53.486;10.218;2022-12-07T11:02:30;4.75;;;1.38;;
17844;SDS011;9047;53.486;10.218;2022-12-07T11:05:11;5.63;;;0.95;;
17844;SDS011;9047;53.486;10.218;2022-12-07T11:07:51;4.40;;;1.30;;
17844;SDS011;9047;53.486;10.218;2022-12-07T11:10:29;7.53;;;1.30;;
17844;SDS011;9047;53.486;10.218;2022-12-07T11:13:11;3.97;;;1.30;;
17844;SDS011;9047;53.486;10.218;2022-12-07T11:15:55;6.35;;;1.55;;
17844;SDS011;9047;53.486;10.218;2022-12-07T11:18:39;5.30;;;1.52;;
17844;SDS011;9047;53.486;10.218;2022-12-07T11:21:19;3.28;;;1.42;;
17844;SDS011;9047;53.486;10.218;2022-12-07T11:23:53;4.78;;;1.58;;
17844;SDS011;9047;53.486;10.218;2022-12-07T11:26:34;4.25;;;1.35;;
17844;SDS011;9047;53.486;10.218;2022-12-07T11:29:21;4.88;;;1.23;;
17844;SDS011;9047;53.486;10.218;2022-12-07T11:32:07;8.10;;;1.48;;
17844;SDS011;9047;53.486;10.218;2022-12-07T11:34:45;5.13;;;1.92;;
17844;SDS011;9047;53.486;10.218;2022-12-07T11:37:19;2.97;;;1.23;;
17844;SDS011;9047;53.486;10.218;2022-12-07T11:39:50;4.22;;;1.08;;
17844;SDS011;9047;53.486;10.218;2022-12-07T11:42:21;7.45;;;1.90;;
17844;SDS011;9047;53.486;10.218;2022-12-07T11:44:53;6.25;;;1.30;;
17844;SDS011;9047;53.486;10.218;2022-12-07T11:47:28;4.60;;;1.20;;
17844;SDS011;9047;53.486;10.218;2022-12-07T11:50:03;4.53;;;1.25;;
17844;SDS011;9047;53.486;10.218;2022-12-07T11:52:51;6.80;;;1.63;;
17844;SDS011;9047;53.486;10.218;2022-12-07T11:55:24;8.15;;;1.50;;
17844;SDS011;9047;53.486;10.218;2022-12-07T11:57:57;7.07;;;1.40;;
17844;SDS011;9047;53.486;10.218;2022-12-07T12:00:29;5.03;;;1.20;;
17844;SDS011;9047;53.486;10.218;2022-12-07T12:02:57;4.28;;;1.30;;
17844;SDS011;9047;53.486;10.218;2022-12-07T12:05:29;6.45;;;1.40;;
17844;SDS011;9047;53.486;10.218;2022-12-07T12:07:59;7.38;;;1.83;;
17844;SDS011;9047;53.486;10.218;2022-12-07T12:10:38;3.75;;;1.25;;
17844;SDS011;9047;53.486;10.218;2022-12-07T12:13:23;6.43;;;1.58;;
17844;SDS011;9047;53.486;10.218;2022-12-07T12:16:10;6.25;;;1.40;;
17844;SDS011;9047;53.486;10.218;2022-12-07T12:18:51;5.57;;;1.20;;
17844;SDS011;9047;53.486;10.218;2022-12-07T12:21:29;8.32;;;1.55;;
17844;SDS011;9047;53.486;10.218;2022-12-07T12:23:58;5.53;;;1.50;;
17844;SDS011;9047;53.486;10.218;2022-12-07T12:26:28;7.97;;;1.95;;
17844;SDS011;9047;53.486;10.218;2022-12-07T12:28:57;7.18;;;1.65;;
17844;SDS011;9047;53.486;10.218;2022-12-07T12:31:31;4.90;;;1.40;;
17844;SDS011;9047;53.486;10.218;2022-12-07T12:34:02;6.65;;;1.92;;
17844;SDS011;9047;53.486;10.218;2022-12-07T12:36:52;4.35;;;1.55;;
17844;SDS011;9047;53.486;10.218;2022-12-07T12:39:19;9.57;;;1.90;;
17844;SDS011;9047;53.486;10.218;2022-12-07T12:41:52;6.22;;;1.70;;
17844;SDS011;9047;53.486;10.218;2022-12-07T12:47:53;8.25;;;2.00;;
17844;SDS011;9047;53.486;10.218;2022-12-07T12:50:21;8.18;;;1.98;;
17844;SDS011;9047;53.486;10.218;2022-12-07T13:01:48;6.47;;;1.60;;
17844;SDS011;9047;53.486;10.218;2022-12-07T13:13:30;8.88;;;1.42;;
17844;SDS011;9047;53.486;10.218;2022-12-07T13:25:26;7.75;;;1.70;;
17844;SDS011;9047;53.486;10.218;2022-12-07T13:28:02;4.97;;;1.38;;
17844;SDS011;9047;53.486;10.218;2022-12-07T13:30:40;8.07;;;1.85;;
17844;SDS011;9047;53.486;10.218;2022-12-07T13:33:13;4.88;;;1.38;;
17844;SDS011;9047;53.486;10.218;2022-12-07T13:35:45;10.05;;;1.80;;
17844;SDS011;9047;53.486;10.218;2022-12-07T13:38:16;7.07;;;1.35;;
17844;SDS011;9047;53.486;10.218;2022-12-07T13:41:03;8.63;;;1.60;;
17844;SDS011;9047;53.486;10.218;2022-12-07T13:43:43;8.15;;;1.60;;
17844;SDS011;9047;53.486;10.218;2022-12-07T13:46:11;5.32;;;1.70;;
17844;SDS011;9047;53.486;10.218;2022-12-07T13:48:43;7.35;;;1.50;;
17844;SDS011;9047;53.486;10.218;2022-12-07T13:51:16;8.50;;;1.30;;
17844;SDS011;9047;53.486;10.218;2022-12-07T13:53:47;9.13;;;1.80;;
17844;SDS011;9047;53.486;10.218;2022-12-07T13:56:16;7.25;;;1.90;;
17844;SDS011;9047;53.486;10.218;2022-12-07T13:58:45;6.10;;;1.60;;
17844;SDS011;9047;53.486;10.218;2022-12-07T14:01:12;8.35;;;1.38;;
17844;SDS011;9047;53.486;10.218;2022-12-07T14:03:39;5.50;;;1.30;;
17844;SDS011;9047;53.486;10.218;2022-12-07T14:06:14;6.53;;;1.50;;
17844;SDS011;9047;53.486;10.218;2022-12-07T14:08:43;6.93;;;1.45;;
17844;SDS011;9047;53.486;10.218;2022-12-07T14:11:17;7.28;;;1.77;;
17844;SDS011;9047;53.486;10.218;2022-12-07T14:13:51;9.32;;;1.83;;
17844;SDS011;9047;53.486;10.218;2022-12-07T14:16:26;7.40;;;1.48;;
17844;SDS011;9047;53.486;10.218;2022-12-07T14:18:55;5.03;;;1.38;;
17844;SDS011;9047;53.486;10.218;2022-12-07T14:21:24;3.83;;;1.15;;
17844;SDS011;9047;53.486;10.218;2022-12-07T14:24:02;5.30;;;1.10;;
17844;SDS011;9047;53.486;10.218;2022-12-07T14:26:40;7.47;;;1.33;;
17844;SDS011;9047;53.486;10.218;2022-12-07T14:29:21;10.15;;;1.10;;
17844;SDS011;9047;53.486;10.218;2022-12-07T14:31:57;6.93;;;1.50;;
17844;SDS011;9047;53.486;10.218;2022-12-07T14:34:32;5.53;;;1.27;;
17844;SDS011;9047;53.486;10.218;2022-12-07T14:37:00;8.00;;;1.30;;
17844;SDS011;9047;53.486;10.218;2022-12-07T14:39:27;6.78;;;1.75;;
17844;SDS011;9047;53.486;10.218;2022-12-07T14:41:55;8.05;;;1.65;;
17844;SDS011;9047;53.486;10.218;2022-12-07T14:44:24;7.80;;;1.80;;
17844;SDS011;9047;53.486;10.218;2022-12-07T14:46:51;5.93;;;1.73;;
17844;SDS011;9047;53.486;10.218;2022-12-07T14:49:19;7.53;;;1.38;;
17844;SDS011;9047;53.486;10.218;2022-12-07T14:51:47;5.90;;;1.48;;
17844;SDS011;9047;53.486;10.218;2022-12-07T14:54:16;5.75;;;1.70;;
17844;SDS011;9047;53.486;10.218;2022-12-07T14:56:45;6.50;;;1.42;;
17844;SDS011;9047;53.486;10.218;2022-12-07T14:59:14;9.70;;;1.98;;
17844;SDS011;9047;53.486;10.218;2022-12-07T15:01:43;3.63;;;1.20;;
17844;SDS011;9047;53.486;10.218;2022-12-07T15:04:10;4.85;;;1.45;;
17844;SDS011;9047;53.486;10.218;2022-12-07T15:06:37;5.88;;;1.60;;
17844;SDS011;9047;53.486;10.218;2022-12-07T15:09:04;8.95;;;1.55;;
17844;SDS011;9047;53.486;10.218;2022-12-07T15:11:31;13.02;;;1.83;;
17844;SDS011;9047;53.486;10.218;2022-12-07T15:13:59;11.55;;;1.92;;
17844;SDS011;9047;53.486;10.218;2022-12-07T15:16:38;5.70;;;1.60;;
17844;SDS011;9047;53.486;10.218;2022-12-07T15:19:13;6.40;;;1.88;;
17844;SDS011;9047;53.486;10.218;2022-12-07T15:21:42;5.20;;;1.15;;
17844;SDS011;9047;53.486;10.218;2022-12-07T15:24:09;4.75;;;1.40;;
17844;SDS011;9047;53.486;10.218;2022-12-07T15:26:37;5.72;;;1.35;;
17844;SDS011;9047;53.486;10.218;2022-12-07T15:29:05;4.93;;;1.30;;
17844;SDS011;9047;53.486;10.218;2022-12-07T15:31:35;4.80;;;1.20;;
17844;SDS011;9047;53.486;10.218;2022-12-07T15:34:02;3.85;;;1.23;;
17844;SDS011;9047;53.486;10.218;2022-12-07T15:36:32;4.28;;;1.30;;
17844;SDS011;9047;53.486;10.218;2022-12-07T15:39:00;7.00;;;1.33;;
17844;SDS011;9047;53.486;10.218;2022-12-07T15:41:28;3.38;;;1.10;;